Dauntless Aviation
Airports North America United States Wyoming
KAFO
AFO
AFO

AFTON MUNI AIRPORT

AFTON, WY, USA

Airport Info
Suggest Updated Information for this Airport

Location

Latitude / Longitude: 42°42'31"N / 110°56'31"W
  42°42.5267'N / 110°56.53'W
  42.7088 / -110.9422
Elevation: 6220.7 ft. (surveyed)
Variation: 14E (2000)
From city: 01 miles SW of AFTON, WY

Operations

Facility use: Open to the public
Sectional chart: SALT LAKE CITY
Control tower: no
Boundary ARTCC: SALT LAKE CITY
Responsible ARTCC: SALT LAKE CITY
FSS: CASPER [1-800-WX-BRIEF]
NOTAMs facility: CPR (NOTAM-D service available)
Segmented circle: yes
Lights: SEE RMK
Beacon: CLEAR-GREEN (LIGHTED LAND AIRPORT)
Landing fee: no

Communications

UNICOM: 122.800
CTAF: 122.800

Nearby radio navigation aids

VOR radial/distance VOR name Freq Var
BPI 282oT/37.6 BIG PINEY VOR/DME 116.50 16E
 
NDB name Hdg/Dist Freq Var ID

Services

Fuel available: 100LLA
Airframe service: MAJOR
Powerplant service: MAJOR
Bottled oxygen: NONE
Bulk oxygen: HIGH

Runway Information

Runway 16/34

Dimensions: 7025 x 75 ft.
Surface: ASPHALT OR BITUMINOUS CONCRETE,GOOD CONDITION,NO SPECIAL SURFACE TREATMENT
Edge lights: MEDIUM
 
Runway 16
Runway 34
Latitude: 42-43-06.2613N 42-41-56.8895N
Longitude: 110-56-31.6954W 110-56-31.9396W
Elevation: 6187.7 ft. 6220.7 ft.
Traffic pattern: right
Runway true heading: 180 000
Markings: nonprecision instrument, in good condition nonprecision instrument, in good condition
Visual slope indicator: 4-LGT PAPI ON LEFT SIDE OF RUNWAY (3.00 degrees glide path) 4-LGT PAPI ON LEFT SIDE OF RUNWAY (3.00 degrees glide path)
Runway end identifier lights: yes yes
 

Operational Statistics

Annual operations: 8600
Air taxi: 300
Local: 4500
Itinerant: 3800

Additional Remarks

  • SNBNKS 4' TO 7' ALONG RWYS & TXYS EDGES FROM OCT-MAY WITH SLICK SPOTS ALL SFCS.
  • COLD TEMPERATURE RESTRICTED AIRPORT. ALTITUDE CORRECTION REQUIRED AT OR BELOW -22C.
  • FOR CD CTC SALT LAKE ARTCC AT 801-320-2568.

Instrument Procedures

Effective Jun 20, 2019 to Jul 17, 2019

IAPs (Instrument Approach Procedures)

   RNAV (GPS) RWY 16 (PDF)
   RNAV (GPS) RWY 34 (PDF)
   TAKEOFF MINIMUMS (PDF)
   AFTON FOUR (OBSTACLE) (RNAV) (PDF)
   LUNDI TWO (OBSTACLE) (RNAV) (PDF)
 
    Legends & General Information
    Airport Diagram Legend
Topographic chart at:
Satellite photo at:
Airport distance calculator
From:
Weather Reports

METAR

KAFO

KAFO 180315Z AUTO 18009KT 10SM CLR 15/09 A3005 RMK AO2
K46U
28.9nm NW
K46U 180315Z AUTO 14003KT 10SM CLR 20/12 A3002 RMK A01
KBPI
37.9nm E
KBPI 180253Z AUTO 25003KT 10SM CLR 18/06 A3012 RMK AO2 SLP107 T01780061 53001

TAF

KBPI
37.9nm E
KBPI 172340Z 1800/1824 28016G25KT P6SM FEW150 FM180200 33006KT P6SM SKC FM180600 VRB05KT P6SM SKC FM181500 27009KT P6SM SKC FM181800 27013G25KT P6SM SKC
Safelog

 

Dauntless Aviation

© 2007-2019 Dauntless Aviation, all rights reserved
Information provided via PilotNav comes from a variety of official and unofficial data sources. As errors are possible, do not use PilotNav for primary flight planning purposes. Verify any information that you receive via PilotNav with current and canonical charts and other official documents. The material in this database is subject to database copyrights held by Dauntless Aviation and may not be copied without the express permission of Dauntless Aviation - licenses for use of part of all of this data are available for purchase; enquire via the Dauntless Aviation helpdesk. A number of mechanisms and markers exist in the database to protect against and identify infringement / copyright. Automated queries against this website are stictly prohibited, and all activity is logged and analyzed.